createdAt,value
2023-02-02T00:15:29.377Z,5.53
2023-02-02T00:35:29.381Z,5.45
2023-02-02T00:55:29.397Z,5.35
2023-02-02T01:15:29.293Z,5.44
2023-02-02T01:35:29.307Z,5.33
2023-02-02T01:55:29.229Z,5.48
2023-02-02T02:35:29.172Z,6.19
2023-02-02T02:55:29.149Z,6.33
2023-02-02T03:15:29.177Z,6.4
2023-02-02T03:35:29.092Z,6.37
2023-02-02T03:55:29.056Z,6.31
2023-02-02T04:15:29.011Z,6.16
2023-02-02T04:35:29.031Z,6.04
2023-02-02T04:55:28.965Z,6.15
2023-02-02T05:15:28.931Z,6.4
2023-02-02T05:35:28.897Z,6.63
2023-02-02T05:55:28.861Z,6.77
2023-02-02T06:15:28.970Z,6.83
2023-02-02T06:55:28.780Z,6.81
2023-02-02T07:15:28.788Z,6.81
2023-02-02T07:35:28.755Z,6.83
2023-02-02T07:55:28.903Z,6.94
2023-02-02T08:15:28.735Z,7
2023-02-02T08:35:28.647Z,7
2023-02-02T08:55:28.621Z,7.06
2023-02-02T09:15:28.557Z,7.07
2023-02-02T09:35:28.565Z,7.15
2023-02-02T09:55:28.542Z,7.27
2023-02-02T10:15:28.504Z,7.27
2023-02-02T10:35:28.441Z,7.34
2023-02-02T10:55:28.382Z,7.38
2023-02-02T11:55:28.318Z,7.34
2023-02-02T12:15:28.270Z,7.29
2023-02-02T12:55:28.207Z,7.37
2023-02-02T13:15:28.177Z,7.4
2023-02-02T13:35:28.292Z,7.54
2023-02-02T13:55:28.471Z,7.61
2023-02-02T14:15:29.113Z,7.55
2023-02-02T14:55:28.363Z,7.46
2023-02-02T15:55:28.359Z,7.51
2023-02-02T17:15:28.128Z,7.53
2023-02-02T18:55:27.955Z,7.56
2023-02-02T19:35:27.966Z,7.69
2023-02-02T19:55:27.532Z,7.8
2023-02-02T20:35:27.483Z,8.1
2023-02-02T20:55:27.429Z,8.24
2023-02-02T21:15:27.401Z,8.15
2023-02-02T21:35:27.446Z,8.43
2023-02-02T21:55:27.340Z,8.44
2023-02-02T22:15:27.317Z,8.49
2023-02-02T22:35:27.326Z,8.5
2023-02-02T22:55:27.233Z,8.47
2023-02-02T23:15:27.201Z,8.58
2023-02-02T23:35:27.227Z,8.64
2023-02-02T23:55:27.153Z,8.68
